Item Display Status Humidity-temperature Sensor

Elevation Above Sea Level: 3 m

 

Deployed Sensor

  • Serial Number: 20351123
  • NDBC Property Number: 43293
  • Start Date: 4/17/2020 (10:35:43 Z)
  • End Date: Currently Active
Relative Humidity [%]     6 entries per hour
Showing data from 6/28/2022 (05:00:00 Z) to 6/27/2022 (00:00:01 Z)
Previous Next [ Day | 3-Days | 7-Days ]
First Last
Prev [ Day | 3-Days | 7-Days ] Next
First Last

Start Time:     :
End Time:     :     
Time (in GMT) :00 :50 :40 :30 :20 :10
Previous Next [ Day | 3-Days | 7-Days ]
First Last
Prev [ Day | 3-Days | 7-Days ] Next
First Last


123 => good data
MM => data is determined as missing
-- => data not received/configured
Back to Top Back to Top
6/28/2022 05:00 to 4:10 88.89 88.89 89.32 89.83 88.42 87.37
6/28/2022 04:00 to 3:10 86.50 86.55 86.57 86.55 86.61 86.83
6/28/2022 03:00 to 2:10 87.43 88.05 88.54 88.68 89.20 90.57
6/28/2022 02:00 to 1:10 91.87 91.70 90.94 90.20 88.97 88.83
6/28/2022 01:00 to 0:10 89.34 89.40 90.37 90.72 91.25 91.79
6/28/2022 00:00 to 23:10 91.77 91.29 90.59 89.07 87.96 86.94
6/27/2022 23:00 to 22:10 86.63 86.18 85.97 85.48 85.29 86.32
6/27/2022 22:00 to 21:10 87.24 87.31 87.49 87.55 87.78 87.45
6/27/2022 21:00 to 20:10 87.63 87.06 86.26 86.44 86.22 86.13
6/27/2022 20:00 to 19:10 86.46 86.71 86.79 86.55 86.98 87.26
6/27/2022 19:00 to 18:10 87.80 88.13 87.66 87.08 87.41 87.66
6/27/2022 18:00 to 17:10 88.58 89.63 89.61 88.44 88.09 88.79
6/27/2022 17:00 to 16:10 88.95 89.20 89.36 89.59 89.36 89.77
6/27/2022 16:00 to 15:10 89.53 88.29 89.09 88.83 89.20 89.44
6/27/2022 15:00 to 14:10 89.71 90.22 90.33 90.66 90.74 89.67
6/27/2022 14:00 to 13:10 89.28 89.18 88.85 88.91 88.62 87.76
6/27/2022 13:00 to 12:10 87.66 87.57 87.88 88.60 89.16 89.69
6/27/2022 12:00 to 11:10 90.10 89.83 89.48 89.48 90.45 90.94
6/27/2022 11:00 to 10:10 90.47 89.53 88.29 88.81 89.77 91.66
6/27/2022 10:00 to 9:10 92.90 94.17 95.75 96.57 96.66 96.27
6/27/2022 09:00 to 8:10 95.69 95.18 94.60 93.45 93.33 93.08
6/27/2022 08:00 to 7:10 93.61 93.16 92.48 92.20 90.76 88.99
6/27/2022 07:00 to 6:10 87.74 88.11 88.31 88.05 88.29 88.83
6/27/2022 06:00 to 5:10 88.50 88.29 88.68 89.48 89.16 88.99
6/27/2022 05:00 to 4:10 89.48 89.28 89.16 89.55 89.50 90.72
6/27/2022 04:00 to 3:10 90.84 89.87 89.94 89.96 90.51 91.35
6/27/2022 03:00 to 2:10 91.07 89.44 88.19 87.88 87.66 87.29
6/27/2022 02:00 to 1:10 87.22 87.74 88.25 88.85 88.70 88.79
6/27/2022 01:00 to 0:10 88.77 88.42 87.78 87.20 87.45 87.37

 

 

 

Air Temperature [°C]     6 entries per hour
Showing data from 6/28/2022 (05:00:00 Z) to 6/27/2022 (00:00:01 Z)
Previous Next [ Day | 3-Days | 7-Days ]
First Last
Prev [ Day | 3-Days | 7-Days ] Next
First Last

Start Time:     :
End Time:     :     
Time (in GMT) :00 :50 :40 :30 :20 :10
Previous Next [ Day | 3-Days | 7-Days ]
First Last
Prev [ Day | 3-Days | 7-Days ] Next
First Last


123 => good data
MM => data is determined as missing
-- => data not received/configured
Back to Top Back to Top
6/28/2022 05:00 to 4:10 25.52 25.40 25.42 25.31 25.48 25.47
6/28/2022 04:00 to 3:10 25.53 25.54 25.57 25.48 25.60 25.41
6/28/2022 03:00 to 2:10 25.27 25.24 25.41 25.19 25.23 24.96
6/28/2022 02:00 to 1:10 24.84 25.00 25.01 24.97 25.32 25.12
6/28/2022 01:00 to 0:10 25.00 25.05 25.00 25.17 25.16 24.92
6/28/2022 00:00 to 23:10 24.88 24.94 25.16 25.30 25.28 25.47
6/27/2022 23:00 to 22:10 25.53 25.49 25.54 25.57 25.57 25.32
6/27/2022 22:00 to 21:10 25.47 25.41 25.39 25.33 25.35 25.35
6/27/2022 21:00 to 20:10 25.37 25.65 25.56 25.50 25.65 25.69
6/27/2022 20:00 to 19:10 25.52 25.51 25.40 25.40 25.53 25.25
6/27/2022 19:00 to 18:10 25.52 25.53 25.65 25.47 25.73 25.42
6/27/2022 18:00 to 17:10 25.39 25.33 25.40 25.52 25.46 25.33
6/27/2022 17:00 to 16:10 25.29 25.47 25.25 25.35 25.66 25.52
6/27/2022 16:00 to 15:10 25.51 25.67 25.36 25.46 25.60 25.43
6/27/2022 15:00 to 14:10 25.48 25.36 25.43 25.40 25.35 25.39
6/27/2022 14:00 to 13:10 25.56 25.51 25.57 25.47 25.42 25.75
6/27/2022 13:00 to 12:10 25.48 25.80 25.40 25.45 25.26 25.21
6/27/2022 12:00 to 11:10 25.17 25.48 25.42 25.41 25.27 25.35
6/27/2022 11:00 to 10:10 25.43 25.32 25.78 25.45 25.36 25.14
6/27/2022 10:00 to 9:10 25.27 24.99 24.70 24.36 23.97 24.31
6/27/2022 09:00 to 8:10 24.40 24.66 24.81 24.98 24.46 24.89
6/27/2022 08:00 to 7:10 24.76 24.84 24.99 24.91 24.74 25.46
6/27/2022 07:00 to 6:10 25.87 25.71 25.58 25.72 25.69 25.69
6/27/2022 06:00 to 5:10 25.78 25.58 25.50 25.63 25.60 25.68
6/27/2022 05:00 to 4:10 25.66 25.69 25.74 25.65 25.49 25.34
6/27/2022 04:00 to 3:10 25.45 25.78 25.44 25.51 25.53 25.23
6/27/2022 03:00 to 2:10 25.36 25.67 25.64 25.73 25.63 25.90
6/27/2022 02:00 to 1:10 25.81 25.70 25.57 25.46 25.55 25.79
6/27/2022 01:00 to 0:10 25.60 25.73 25.94 25.83 25.65 25.75